Time;durP1;ratioP1;P1;durP2;ratioP2;P2;SDS_P1;SDS_P2;PMS_P1;PMS_P2;Temp;Humidity;BMP_temperature;BMP_pressure;BME280_temperature;BME280_humidity;BME280_pressure;Samples;Min_cycle;Max_cycle;Signal;HPM_P1;HPM_P2
2022/09/10 00:02:16;;;;;;;2.33;1.83;;;;;;;15.97;87.54;101020.88;6332937;27;20497;-81
2022/09/10 00:05:41;;;;;;;1.48;1.38;;;;;;;15.96;87.58;101021.03;6337658;27;20250;-81
2022/09/10 00:09:04;;;;;;;3.08;2.05;;;;;;;15.98;87.99;101019.00;6342593;27;20287;-81
2022/09/10 00:12:26;;;;;;;1.70;1.20;;;;;;;15.96;87.75;101024.59;6337604;27;20237;-81
2022/09/10 00:15:49;;;;;;;1.93;1.53;;;;;;;15.96;87.84;101024.59;6340999;27;20234;-81
2022/09/10 00:19:11;;;;;;;3.97;1.50;;;;;;;16.02;87.45;101020.34;6339117;27;20488;-82
2022/09/10 00:22:33;;;;;;;2.20;1.90;;;;;;;16.10;87.00;101014.09;6325096;27;20225;-81
2022/09/10 00:25:56;;;;;;;1.83;1.73;;;;;;;16.04;87.08;101015.63;6336744;27;20927;-80
2022/09/10 00:29:18;;;;;;;1.60;1.50;;;;;;;16.02;87.21;101014.91;6343217;27;20240;-80
2022/09/10 00:32:41;;;;;;;2.60;1.50;;;;;;;16.06;87.21;101018.16;6318382;27;20221;-81
2022/09/10 00:36:04;;;;;;;1.60;1.37;;;;;;;16.00;86.86;101009.66;6322646;27;20584;-80
2022/09/10 00:39:27;;;;;;;5.13;1.70;;;;;;;16.10;86.87;101014.09;6344708;27;20225;-81
2022/09/10 00:42:49;;;;;;;1.80;1.70;;;;;;;16.14;86.52;101012.75;6334697;27;20229;-81
2022/09/10 00:46:10;;;;;;;2.97;1.87;;;;;;;15.81;87.86;101011.84;6328565;27;20222;-81
2022/09/10 00:49:33;;;;;;;1.97;1.63;;;;;;;15.80;87.38;101019.16;6326229;27;20520;-80
2022/09/10 00:52:57;;;;;;;1.67;1.27;;;;;;;15.71;88.56;101022.84;6330339;27;20704;-80
2022/09/10 00:56:19;;;;;;;1.50;1.30;;;;;;;15.80;87.91;101019.16;6330918;27;20221;-80
2022/09/10 00:59:46;;;;;;;3.93;1.93;;;;;;;15.91;87.80;101017.97;6328125;27;20217;-80
2022/09/10 01:03:10;;;;;;;1.30;1.20;;;;;;;15.93;87.94;101024.97;6332003;27;20569;-80
2022/09/10 01:06:32;;;;;;;1.67;1.50;;;;;;;15.66;88.90;101027.09;6326962;27;20216;-80
2022/09/10 01:09:55;;;;;;;1.57;1.10;;;;;;;15.78;88.37;101015.75;6334346;27;20221;-79
2022/09/10 01:13:34;;;;;;;1.80;1.70;;;;;;;15.85;88.35;101022.19;6334700;27;20286;-79
2022/09/10 01:17:06;;;;;;;2.97;1.33;;;;;;;15.97;87.62;101036.34;6330998;27;20234;-79
2022/09/10 01:21:02;;;;;;;1.57;1.43;;;;;;;16.07;87.49;101039.75;6318241;27;20225;-79
2022/09/10 01:24:44;;;;;;;1.97;1.30;;;;;;;16.13;87.05;101036.34;6320871;27;20230;-80
2022/09/10 01:28:16;;;;;;;1.30;1.20;;;;;;;16.19;86.66;101032.13;6337187;27;20230;-81
2022/09/10 01:31:44;;;;;;;1.67;1.57;;;;;;;16.04;86.85;101031.09;6328054;27;20237;-80
2022/09/10 01:35:14;;;;;;;1.85;1.17;;;;;;;16.04;86.33;101031.09;6328881;27;20225;-81
2022/09/10 01:38:38;;;;;;;1.73;1.30;;;;;;;15.94;86.43;101025.78;6342225;27;20229;-81
2022/09/10 01:42:00;;;;;;;2.00;1.23;;;;;;;15.82;87.07;101027.97;6335363;27;20233;-81
2022/09/10 01:45:29;;;;;;;1.48;1.38;;;;;;;15.81;87.27;101039.03;6348800;27;20252;-80
2022/09/10 01:49:17;;;;;;;2.22;1.17;;;;;;;15.95;86.84;101041.97;6331411;27;20276;-81
2022/09/10 01:52:55;;;;;;;1.30;1.20;;;;;;;15.89;87.17;101042.63;6317381;27;20241;-81
2022/09/10 01:56:34;;;;;;;1.27;1.17;;;;;;;15.87;88.06;101033.75;6318150;27;20233;-81
2022/09/10 02:00:06;;;;;;;1.80;1.20;;;;;;;15.86;86.92;101042.09;6344264;27;20303;-81
2022/09/10 02:03:38;;;;;;;1.48;1.00;;;;;;;15.71;86.88;101044.59;6308728;27;21764;-81
2022/09/10 02:07:00;;;;;;;0.80;0.80;;;;;;;15.65;87.39;101037.09;6332823;27;20584;-81
2022/09/10 02:10:22;;;;;;;2.77;1.20;;;;;;;15.53;87.78;101043.84;6293783;27;20316;-80
2022/09/10 02:13:44;;;;;;;1.77;0.90;;;;;;;15.70;87.93;101037.47;6326712;27;20443;-80
2022/09/10 02:17:32;;;;;;;0.93;0.87;;;;;;;15.86;87.47;101037.50;6313122;27;20526;-80
2022/09/10 02:20:57;;;;;;;1.37;1.27;;;;;;;15.89;87.37;101033.59;6327195;27;20245;-80
2022/09/10 02:24:18;;;;;;;1.07;1.00;;;;;;;16.03;86.98;101032.94;6332160;27;21426;-79
2022/09/10 02:27:41;;;;;;;0.80;0.80;;;;;;;16.06;86.82;101038.06;6316185;27;20237;-79
2022/09/10 02:31:02;;;;;;;1.53;1.43;;;;;;;15.92;86.21;101046.84;6338091;27;20233;-81
2022/09/10 02:34:23;;;;;;;2.40;1.00;;;;;;;15.69;87.39;101035.75;6336952;27;20222;-80
2022/09/10 02:37:45;;;;;;;1.07;0.97;;;;;;;15.71;87.73;101028.28;6296413;27;20782;-80
2022/09/10 02:41:08;;;;;;;1.73;0.80;;;;;;;15.75;87.46;101029.66;6324607;27;20252;-80
2022/09/10 02:44:29;;;;;;;2.27;2.10;;;;;;;15.80;87.79;101040.91;6312737;27;20486;-80
2022/09/10 02:47:51;;;;;;;1.60;1.50;;;;;;;15.83;87.91;101043.25;6308924;27;20964;-80
2022/09/10 02:51:12;;;;;;;1.60;1.03;;;;;;;15.78;87.72;101037.50;6309494;27;20229;-80
2022/09/10 02:54:35;;;;;;;1.47;1.33;;;;;;;15.85;87.02;101035.78;6333229;27;21756;-80
2022/09/10 02:57:57;;;;;;;1.53;1.43;;;;;;;15.96;87.25;101027.31;6335672;27;20225;-80
2022/09/10 03:01:20;;;;;;;1.40;1.10;;;;;;;16.14;86.25;101034.50;6311826;27;20316;-80
2022/09/10 03:04:49;;;;;;;0.90;0.90;;;;;;;16.15;86.35;101039.75;6318024;27;20482;-82
2022/09/10 03:08:10;;;;;;;1.07;0.90;;;;;;;16.09;86.11;101040.44;6325729;27;20241;-81
2022/09/10 03:11:39;;;;;;;1.60;1.50;;;;;;;15.99;86.33;101032.44;6318299;27;20237;-80
2022/09/10 03:15:00;;;;;;;1.03;1.00;;;;;;;15.75;87.02;101040.53;6322349;27;20232;-81
2022/09/10 03:18:23;;;;;;;4.60;1.40;;;;;;;15.83;87.18;101039.72;6319554;27;20309;-81
2022/09/10 03:21:46;;;;;;;2.30;1.53;;;;;;;15.93;87.16;101029.53;6323233;27;20229;-82
2022/09/10 03:25:08;;;;;;;1.83;1.30;;;;;;;15.72;87.27;101038.16;6314885;27;20454;-81
2022/09/10 03:28:31;;;;;;;2.47;1.93;;;;;;;15.69;87.50;101035.75;6305272;27;20324;-81
2022/09/10 03:31:54;;;;;;;1.50;1.40;;;;;;;15.68;87.98;101035.94;6303263;27;20797;-80
2022/09/10 03:35:16;;;;;;;1.90;1.70;;;;;;;15.77;87.18;101035.78;6325960;27;20517;-80
2022/09/10 03:38:37;;;;;;;3.90;2.27;;;;;;;15.75;87.89;101047.84;6338773;27;20229;-80
2022/09/10 03:41:58;;;;;;;2.17;1.97;;;;;;;15.76;87.48;101041.38;6322526;27;20225;-80
2022/09/10 03:45:23;;;;;;;1.50;1.37;;;;;;;15.83;87.58;101045.97;6313186;27;20823;-81
2022/09/10 03:48:44;;;;;;;1.73;1.63;;;;;;;15.79;87.23;101044.59;6314931;27;20229;-80
2022/09/10 03:52:05;;;;;;;2.13;1.30;;;;;;;15.70;87.58;101040.19;6331243;27;20234;-82
2022/09/10 03:55:30;;;;;;;1.47;1.37;;;;;;;15.67;87.43;101050.50;6341662;27;20225;-81
2022/09/10 03:58:51;;;;;;;2.70;1.77;;;;;;;15.71;87.51;101050.03;6337846;27;20245;-81
2022/09/10 04:02:15;;;;;;;2.50;1.27;;;;;;;15.76;87.19;101046.81;6330773;27;20525;-80
2022/09/10 04:05:39;;;;;;;1.83;1.30;;;;;;;15.74;87.76;101052.44;6328766;27;20225;-81
2022/09/10 04:09:01;;;;;;;1.20;1.10;;;;;;;15.85;86.65;101059.44;6328466;27;20233;-81
2022/09/10 04:12:22;;;;;;;2.53;2.33;;;;;;;15.81;87.16;101061.59;6317018;27;20222;-80
2022/09/10 04:15:44;;;;;;;4.33;1.87;;;;;;;15.68;87.30;101063.09;6351342;27;20225;-80
2022/09/10 04:19:08;;;;;;;3.60;2.40;;;;;;;15.70;87.39;101061.06;6335353;27;21582;-81
2022/09/10 04:22:30;;;;;;;2.10;1.43;;;;;;;15.78;87.09;101059.25;6337117;27;20233;-82
2022/09/10 04:25:53;;;;;;;2.70;1.67;;;;;;;15.80;87.20;101065.34;6312960;27;20328;-80
2022/09/10 04:29:15;;;;;;;4.83;3.17;;;;;;;15.96;86.45;101051.81;6328994;27;20257;-80
2022/09/10 04:32:37;;;;;;;3.30;2.07;;;;;;;15.78;86.90;101061.09;6333081;27;20684;-80
2022/09/10 04:36:00;;;;;;;2.03;1.80;;;;;;;15.76;87.18;101061.28;6320569;27;20248;-82
2022/09/10 04:39:22;;;;;;;2.75;1.40;;;;;;;15.68;87.61;101065.81;6323051;27;20224;-80
2022/09/10 04:42:44;;;;;;;2.50;1.65;;;;;;;15.62;87.40;101070.06;6323154;27;20233;-80
2022/09/10 04:46:06;;;;;;;2.53;1.25;;;;;;;15.65;87.44;101068.84;6337473;27;20221;-81
2022/09/10 04:49:29;;;;;;;1.67;1.57;;;;;;;15.64;87.85;101072.59;6321161;27;20293;-80
2022/09/10 04:52:52;;;;;;;1.53;1.43;;;;;;;15.64;87.40;101064.44;6324536;27;20225;-80
2022/09/10 04:56:14;;;;;;;1.63;1.30;;;;;;;15.69;87.13;101073.81;6316447;27;20764;-80
2022/09/10 04:59:37;;;;;;;2.60;1.33;;;;;;;15.60;87.38;101065.81;6314823;27;20301;-80
2022/09/10 05:02:58;;;;;;;2.33;1.90;;;;;;;15.59;88.04;101070.38;6311256;27;20644;-80
2022/09/10 05:06:20;;;;;;;1.97;1.37;;;;;;;15.56;87.90;101078.00;6334324;27;20233;-81
2022/09/10 05:09:43;;;;;;;2.00;1.47;;;;;;;15.63;87.85;101070.88;6315660;27;20232;-79
2022/09/10 05:13:09;;;;;;;4.47;1.67;;;;;;;15.52;87.81;101069.31;6298391;27;20226;-80
2022/09/10 05:16:30;;;;;;;1.50;1.40;;;;;;;15.51;87.81;101078.50;6320877;27;20240;-81
2022/09/10 05:19:51;;;;;;;1.17;1.17;;;;;;;15.58;88.04;101074.09;6326307;27;20221;-81
2022/09/10 05:23:14;;;;;;;2.40;2.20;;;;;;;15.62;87.74;101072.78;6339800;27;20269;-80
2022/09/10 05:26:38;;;;;;;1.40;1.10;;;;;;;15.58;87.75;101074.09;6323860;27;20233;-81
2022/09/10 05:30:02;;;;;;;1.53;1.43;;;;;;;15.62;87.80;101074.63;6337303;27;20918;-80
2022/09/10 05:33:23;;;;;;;1.97;1.50;;;;;;;15.53;87.62;101071.03;6326603;27;20816;-81
2022/09/10 05:36:45;;;;;;;2.13;1.20;;;;;;;15.42;88.02;101071.28;6329559;27;20233;-81
2022/09/10 05:40:07;;;;;;;1.93;1.67;;;;;;;15.27;88.62;101072.06;6310730;27;20238;-81
2022/09/10 05:43:30;;;;;;;2.50;2.33;;;;;;;15.32;89.44;101081.41;6327459;27;20229;-81
2022/09/10 05:46:52;;;;;;;3.47;1.80;;;;;;;15.39;88.83;101077.06;6331572;27;20229;-81
2022/09/10 05:50:14;;;;;;;2.17;2.00;;;;;;;15.46;88.67;101074.56;6302061;27;20237;-80
2022/09/10 05:53:37;;;;;;;2.03;1.63;;;;;;;15.44;88.85;101080.16;6316489;27;20303;-79
2022/09/10 05:57:01;;;;;;;2.90;2.30;;;;;;;15.52;89.23;101074.75;6318817;27;20237;-80
2022/09/10 06:00:25;;;;;;;2.30;1.67;;;;;;;15.53;88.81;101087.34;6325297;27;20226;-80
2022/09/10 06:03:52;;;;;;;1.77;1.50;;;;;;;15.82;88.14;101081.50;6318924;27;20625;-80
2022/09/10 06:07:14;;;;;;;3.63;1.30;;;;;;;15.90;87.51;101089.69;6325515;27;20316;-80
2022/09/10 06:10:37;;;;;;;4.37;2.60;;;;;;;15.94;87.17;101091.03;6326680;27;20669;-82
2022/09/10 06:13:58;;;;;;;2.23;2.03;;;;;;;15.99;87.26;101089.56;6334933;27;20225;-80
2022/09/10 06:17:21;;;;;;;3.00;1.60;;;;;;;16.33;86.07;101091.31;6327404;27;20355;-80
2022/09/10 06:20:42;;;;;;;2.77;1.50;;;;;;;16.57;85.21;101097.66;6319673;27;21498;-82
2022/09/10 06:24:04;;;;;;;1.73;1.63;;;;;;;16.63;84.63;101096.13;6343132;27;20236;-81
2022/09/10 06:27:28;;;;;;;4.53;1.55;;;;;;;16.74;84.39;101095.78;6348901;27;20589;-80
2022/09/10 06:30:49;;;;;;;1.23;1.13;;;;;;;16.71;84.04;101105.16;6315895;27;20602;-81
2022/09/10 06:34:13;;;;;;;1.40;1.25;;;;;;;16.85;83.26;101109.06;6328831;27;20253;-82
2022/09/10 06:37:34;;;;;;;1.13;1.08;;;;;;;16.95;83.16;101108.88;6334618;27;20228;-82
2022/09/10 06:41:03;;;;;;;2.38;1.38;;;;;;;16.95;83.08;101109.75;6347386;27;20860;-81
2022/09/10 06:44:30;;;;;;;2.00;1.70;;;;;;;16.97;82.95;101115.00;6340402;27;20233;-81
2022/09/10 06:48:04;;;;;;;1.70;1.60;;;;;;;17.06;82.51;101112.13;6340620;27;20228;-80
2022/09/10 06:51:35;;;;;;;4.43;1.88;;;;;;;17.15;82.02;101121.13;6332609;27;20221;-79
2022/09/10 06:54:58;;;;;;;1.80;1.70;;;;;;;17.06;82.19;101119.44;6328619;27;20633;-80
2022/09/10 06:58:36;;;;;;;2.03;1.42;;;;;;;16.70;83.66;101122.53;6330228;27;20229;-80
2022/09/10 07:01:59;;;;;;;2.47;1.57;;;;;;;16.93;83.15;101121.81;6317195;27;20233;-80
2022/09/10 07:05:20;;;;;;;1.80;1.27;;;;;;;17.20;82.47;101125.03;6315008;27;20630;-80
2022/09/10 07:08:44;;;;;;;2.28;1.80;;;;;;;17.32;81.57;101125.50;6315593;27;20228;-80
2022/09/10 07:12:08;;;;;;;4.40;2.30;;;;;;;16.88;83.55;101126.91;6323667;27;20229;-80
2022/09/10 07:15:33;;;;;;;1.95;1.70;;;;;;;17.15;82.33;101126.56;6319993;27;20930;-79
2022/09/10 07:18:56;;;;;;;2.65;2.45;;;;;;;16.92;83.26;101131.88;6340720;27;20265;-81
2022/09/10 07:22:25;;;;;;;3.28;2.90;;;;;;;17.20;82.64;101133.22;6322051;27;20250;-80
2022/09/10 07:25:48;;;;;;;4.07;2.90;;;;;;;17.38;81.46;101133.00;6326015;27;20312;-79
2022/09/10 07:29:30;;;;;;;3.70;2.35;;;;;;;17.58;80.34;101134.34;6344783;27;20217;-81
2022/09/10 07:32:52;;;;;;;2.17;1.90;;;;;;;17.76;79.63;101134.09;6310812;27;21239;-82
2022/09/10 07:36:18;;;;;;;3.65;2.30;;;;;;;17.86;78.91;101142.94;6317245;27;20237;-82
2022/09/10 07:39:41;;;;;;;8.77;2.70;;;;;;;17.78;78.55;101143.81;6320128;27;20230;-80
2022/09/10 07:43:07;;;;;;;3.08;2.80;;;;;;;17.82;78.99;101138.84;6318216;27;20516;-80
2022/09/10 07:46:29;;;;;;;4.07;2.88;;;;;;;17.90;78.12;101139.69;6311061;27;20232;-79
2022/09/10 07:49:52;;;;;;;5.63;3.72;;;;;;;18.17;77.24;101147.41;6312690;27;20491;-81
2022/09/10 07:53:13;;;;;;;8.15;2.65;;;;;;;17.74;79.41;101153.38;6326152;27;20529;-82
2022/09/10 07:56:36;;;;;;;2.78;2.58;;;;;;;17.45;80.29;101151.22;6298894;28;20245;-81
2022/09/10 08:00:02;;;;;;;2.53;2.33;;;;;;;17.64;79.73;101154.59;6299700;27;20690;-80
2022/09/10 08:03:35;;;;;;;4.90;3.17;;;;;;;17.20;81.36;101154.16;6317658;27;20226;-78
2022/09/10 08:06:57;;;;;;;4.38;2.78;;;;;;;17.37;80.64;101161.28;6302972;27;20238;-74
2022/09/10 08:10:20;;;;;;;3.08;2.50;;;;;;;17.64;80.44;101160.94;6329793;27;20217;-77
2022/09/10 08:13:44;;;;;;;4.05;3.50;;;;;;;17.43;80.41;101168.78;6327088;27;20237;-76
2022/09/10 08:17:08;;;;;;;3.30;2.97;;;;;;;17.72;79.34;101168.22;6325153;27;20213;-75
2022/09/10 08:20:33;;;;;;;3.55;3.22;;;;;;;17.75;79.04;101165.16;6336941;28;20610;-75
2022/09/10 08:23:55;;;;;;;5.45;4.43;;;;;;;17.71;79.40;101172.81;6328025;27;20421;-76
2022/09/10 08:27:18;;;;;;;4.80;4.03;;;;;;;18.14;78.41;101172.31;6323627;27;22123;-76
2022/09/10 08:30:42;;;;;;;5.50;4.88;;;;;;;18.46;77.58;101184.13;6334582;27;20518;-77
2022/09/10 08:34:05;;;;;;;4.88;3.97;;;;;;;18.46;76.39;101184.97;6330619;27;20229;-77
2022/09/10 08:37:29;;;;;;;5.50;3.63;;;;;;;18.11;77.94;101189.03;6330792;27;20245;-77
2022/09/10 08:40:52;;;;;;;3.05;2.58;;;;;;;18.48;77.19;101193.00;6324671;27;20237;-76
2022/09/10 08:44:24;;;;;;;4.72;4.25;;;;;;;18.47;77.35;101199.47;6323813;28;20245;-75
2022/09/10 08:47:53;;;;;;;5.20;4.07;;;;;;;18.86;76.38;101194.78;6311238;27;20227;-76
2022/09/10 08:51:24;;;;;;;5.43;3.58;;;;;;;18.53;77.06;101196.88;6340260;27;20233;-76
2022/09/10 08:54:58;;;;;;;5.25;3.88;;;;;;;18.81;75.67;101202.69;6333948;27;20327;-75
2022/09/10 08:58:24;;;;;;;9.65;4.65;;;;;;;18.21;77.07;101208.78;6337242;27;20319;-76
2022/09/10 09:01:51;;;;;;;4.80;3.80;;;;;;;18.70;76.38;101205.81;6335139;27;20229;-76
2022/09/10 09:05:16;;;;;;;5.25;3.95;;;;;;;19.08;75.26;101203.00;6347004;27;20264;-75
2022/09/10 09:08:47;;;;;;;5.72;4.45;;;;;;;18.74;76.27;101205.28;6330167;27;20245;-77
2022/09/10 09:12:18;;;;;;;8.05;4.97;;;;;;;18.76;76.59;101208.69;6348734;27;20248;-77
2022/09/10 09:15:50;;;;;;;5.38;4.47;;;;;;;18.68;75.78;101208.75;6331422;27;20357;-77
2022/09/10 09:19:24;;;;;;;4.15;3.85;;;;;;;19.19;74.83;101209.06;6322907;27;20299;-77
2022/09/10 09:22:51;;;;;;;3.42;3.08;;;;;;;19.77;73.40;101207.31;6332644;27;20225;-75
2022/09/10 09:26:18;;;;;;;3.45;3.15;;;;;;;20.14;71.54;101211.00;6316844;27;20236;-76
2022/09/10 09:29:49;;;;;;;4.60;4.18;;;;;;;19.76;72.05;101208.34;6329663;27;20442;-76
2022/09/10 09:33:15;;;;;;;7.78;4.85;;;;;;;20.13;71.06;101204.66;6346151;27;20256;-76
2022/09/10 09:36:41;;;;;;;3.83;3.42;;;;;;;20.55;70.50;101209.44;6337911;27;20217;-76
2022/09/10 09:40:16;;;;;;;5.28;4.65;;;;;;;20.65;68.73;101210.00;6333292;27;20611;-76
2022/09/10 09:43:53;;;;;;;3.42;3.13;;;;;;;21.12;68.65;101203.97;6304673;27;20231;-80
2022/09/10 09:47:15;;;;;;;5.57;4.15;;;;;;;19.95;70.26;101209.66;6322147;27;20252;-77
2022/09/10 09:50:41;;;;;;;3.55;2.97;;;;;;;20.70;69.35;101199.28;6342122;27;20226;-80
2022/09/10 09:54:08;;;;;;;9.27;4.22;;;;;;;20.95;67.14;101202.50;6337885;27;20678;-77
2022/09/10 09:57:29;;;;;;;5.55;3.25;;;;;;;20.83;69.06;101210.41;6351371;27;20601;-77
2022/09/10 10:01:05;;;;;;;5.25;4.72;;;;;;;20.05;70.42;101203.94;6339195;27;20233;-75
2022/09/10 10:04:32;;;;;;;6.10;3.85;;;;;;;19.86;70.55;101208.06;6322258;27;20221;-76
2022/09/10 10:07:53;;;;;;;4.47;3.28;;;;;;;20.07;71.07;101204.59;6341776;27;20348;-76
2022/09/10 10:11:20;;;;;;;3.83;3.53;;;;;;;19.82;70.69;101210.31;6351014;27;20248;-77
2022/09/10 10:14:42;;;;;;;5.13;4.00;;;;;;;20.29;70.33;101204.50;6348139;27;20229;-76
2022/09/10 10:18:28;;;;;;;3.63;3.33;;;;;;;20.21;67.46;101209.22;6348703;27;20614;-76
2022/09/10 10:21:49;;;;;;;3.58;3.15;;;;;;;20.59;68.31;101213.50;6338217;27;20557;-76
2022/09/10 10:25:39;;;;;;;4.10;3.33;;;;;;;20.78;67.15;101207.38;6346426;27;20236;-74
2022/09/10 10:29:05;;;;;;;5.57;4.30;;;;;;;20.41;67.95;101218.53;6311587;27;20232;-76
2022/09/10 10:32:33;;;;;;;6.05;3.83;;;;;;;19.83;70.07;101222.13;6350261;27;20220;-76
2022/09/10 10:36:05;;;;;;;4.43;3.22;;;;;;;20.30;69.19;101213.53;6347277;27;20225;-76
2022/09/10 10:39:44;;;;;;;6.38;3.03;;;;;;;20.82;68.08;101218.84;6321618;27;20673;-76
2022/09/10 10:43:28;;;;;;;4.82;4.30;;;;;;;20.38;67.35;101218.94;6347039;27;20225;-76
2022/09/10 10:47:00;;;;;;;4.78;4.00;;;;;;;20.00;69.04;101214.59;6347648;27;20261;-76
2022/09/10 10:50:33;;;;;;;4.65;4.20;;;;;;;19.92;69.68;101216.38;6328883;27;20242;-77
2022/09/10 10:54:22;;;;;;;7.00;4.35;;;;;;;19.73;69.78;101216.91;6347673;27;20233;-76
2022/09/10 10:58:06;;;;;;;6.57;2.85;;;;;;;20.08;69.58;101212.59;6344909;27;20245;-75
2022/09/10 11:01:29;;;;;;;3.97;3.67;;;;;;;20.29;68.94;101207.25;6325969;27;20318;-77
2022/09/10 11:04:53;;;;;;;6.25;3.63;;;;;;;20.69;68.13;101212.13;6336242;27;20248;-76
2022/09/10 11:08:18;;;;;;;6.03;4.43;;;;;;;21.13;66.48;101202.94;6347905;27;20256;-77
2022/09/10 11:11:52;;;;;;;3.90;3.60;;;;;;;21.33;65.82;101201.22;6318968;27;20321;-76
2022/09/10 11:15:23;;;;;;;6.15;4.30;;;;;;;21.31;65.39;101200.56;6350410;27;20217;-85
2022/09/10 11:18:49;;;;;;;4.47;3.75;;;;;;;21.66;64.24;101195.97;6325155;27;20238;-78
2022/09/10 11:22:19;;;;;;;6.18;4.38;;;;;;;22.38;62.20;101194.53;6349209;27;20513;-79
2022/09/10 11:25:52;;;;;;;3.53;3.22;;;;;;;22.50;62.63;101187.41;6338908;27;20244;-74
2022/09/10 11:29:27;;;;;;;4.50;3.38;;;;;;;23.25;60.20;101183.53;6326383;27;20226;-80
2022/09/10 11:32:57;;;;;;;3.97;3.58;;;;;;;23.52;58.64;101186.13;6329914;27;20234;-79
2022/09/10 11:36:24;;;;;;;3.80;3.45;;;;;;;24.65;55.92;101188.34;6343789;27;20240;-80
2022/09/10 11:39:48;;;;;;;4.05;2.85;;;;;;;25.48;53.45;101181.66;6313603;27;20227;-79
2022/09/10 11:43:13;;;;;;;4.22;2.80;;;;;;;26.02;49.74;101178.97;6310303;27;20264;-81
2022/09/10 11:46:38;;;;;;;3.05;2.70;;;;;;;25.72;50.25;101178.00;6349739;27;20218;-81
2022/09/10 11:50:06;;;;;;;2.80;2.47;;;;;;;25.19;50.61;101169.34;6345554;27;20252;-80
2022/09/10 11:53:29;;;;;;;1.55;1.45;;;;;;;27.50;44.58;101163.50;6350753;27;20229;-78
2022/09/10 11:56:59;;;;;;;2.33;1.70;;;;;;;32.84;34.28;101160.63;6342943;27;20226;-81
2022/09/10 12:00:21;;;;;;;3.88;2.50;;;;;;;34.28;32.01;101152.47;6348559;27;20617;-81
2022/09/10 12:04:01;;;;;;;4.22;1.48;;;;;;;37.54;26.46;101154.97;6348255;27;20247;-80
2022/09/10 12:07:37;;;;;;;1.45;1.30;;;;;;;37.44;26.64;101146.72;6351518;28;20922;-79
2022/09/10 12:11:13;;;;;;;2.65;1.48;;;;;;;31.72;35.86;101149.19;6345237;28;20440;-77
2022/09/10 12:14:38;;;;;;;4.07;1.52;;;;;;;30.77;37.85;101153.59;6346820;27;20225;-79
2022/09/10 12:18:04;;;;;;;3.80;1.80;;;;;;;29.90;38.50;101149.16;6331442;27;20233;-78
2022/09/10 12:21:32;;;;;;;1.65;1.52;;;;;;;27.42;42.82;101148.09;6340878;27;20217;-78
2022/09/10 12:24:59;;;;;;;2.13;1.85;;;;;;;26.07;44.36;101158.94;6352246;27;20221;-78
2022/09/10 12:29:01;;;;;;;1.40;1.10;;;;;;;24.64;47.10;101156.31;6351576;27;20225;-78
2022/09/10 12:32:28;;;;;;;1.92;1.00;;;;;;;24.04;49.23;101162.31;6337085;27;20233;-79
2022/09/10 12:35:51;;;;;;;1.55;1.45;;;;;;;23.15;50.79;101158.38;6346938;27;20523;-79
2022/09/10 12:39:33;;;;;;;1.95;1.42;;;;;;;23.18;51.72;101163.41;6353439;27;20233;-78
2022/09/10 12:42:59;;;;;;;2.08;1.98;;;;;;;22.40;54.70;101161.34;6358399;27;20225;-78
2022/09/10 12:46:24;;;;;;;6.47;2.30;;;;;;;21.83;56.06;101154.34;6352002;27;20506;-78
2022/09/10 12:49:48;;;;;;;1.83;1.63;;;;;;;22.68;55.08;101153.84;6355299;27;20244;-78
2022/09/10 12:53:46;;;;;;;2.35;1.70;;;;;;;22.46;54.71;101155.03;6358030;27;20259;-78
2022/09/10 12:57:25;;;;;;;1.73;1.63;;;;;;;22.66;53.68;101158.69;6353751;27;20244;-79
2022/09/10 13:01:01;;;;;;;1.90;1.65;;;;;;;22.74;55.16;101155.75;6354375;27;20233;-78
2022/09/10 13:04:27;;;;;;;2.05;1.88;;;;;;;22.71;54.12;101148.81;6330842;27;20259;-79
2022/09/10 13:07:58;;;;;;;3.50;2.90;;;;;;;21.33;57.12;101149.09;6355395;27;20510;-79
2022/09/10 13:11:23;;;;;;;2.28;2.08;;;;;;;20.84;59.33;101153.69;6362300;27;20229;-79
2022/09/10 13:14:50;;;;;;;2.72;2.28;;;;;;;20.45;60.49;101154.09;6350944;27;20229;-79
2022/09/10 13:18:29;;;;;;;2.10;1.80;;;;;;;20.42;60.75;101151.78;6361281;27;20225;-79
2022/09/10 13:21:52;;;;;;;1.73;1.63;;;;;;;20.52;60.33;101153.16;6358944;27;20240;-79
2022/09/10 13:25:26;;;;;;;2.78;1.90;;;;;;;21.03;58.86;101148.41;6358481;27;20295;-78
2022/09/10 13:29:04;;;;;;;2.38;2.00;;;;;;;21.39;58.96;101146.41;6360834;27;20228;-79
2022/09/10 13:32:30;;;;;;;2.30;2.10;;;;;;;21.60;58.83;101145.50;6361218;27;20292;-78
2022/09/10 13:36:22;;;;;;;5.85;4.30;;;;;;;21.51;59.59;101146.69;6361154;27;20237;-79
2022/09/10 13:40:12;;;;;;;4.57;3.80;;;;;;;21.84;59.33;101145.03;6359057;27;20584;-79
2022/09/10 13:43:58;;;;;;;4.07;3.67;;;;;;;22.38;57.84;101144.22;6353635;27;20582;-79
2022/09/10 13:47:24;;;;;;;5.47;3.72;;;;;;;22.41;58.13;101149.28;6354567;27;20307;-80
2022/09/10 13:50:53;;;;;;;3.95;3.08;;;;;;;21.45;58.97;101142.00;6353702;27;20281;-78
2022/09/10 13:54:28;;;;;;;3.78;3.28;;;;;;;21.52;58.48;101142.06;6354832;27;20232;-78
2022/09/10 13:57:51;;;;;;;4.50;3.92;;;;;;;21.15;60.60;101144.09;6344427;27;20224;-79
2022/09/10 14:01:12;;;;;;;3.40;3.10;;;;;;;21.54;60.45;101142.69;6351428;27;20344;-79
2022/09/10 14:04:35;;;;;;;5.63;3.83;;;;;;;22.25;58.42;101142.28;6354831;27;20549;-78
2022/09/10 14:08:04;;;;;;;3.55;3.25;;;;;;;22.75;57.35;101141.81;6350049;27;20229;-77
2022/09/10 14:11:27;;;;;;;3.58;2.58;;;;;;;22.12;58.72;101143.06;6352108;27;20232;-78
2022/09/10 14:14:52;;;;;;;2.80;2.60;;;;;;;22.75;56.48;101149.22;6360188;27;20236;-79
2022/09/10 14:18:15;;;;;;;2.90;2.63;;;;;;;22.02;57.93;101155.47;6355592;27;21025;-78
2022/09/10 14:21:35;;;;;;;2.90;2.70;;;;;;;21.70;59.26;101156.09;6335589;27;20312;-78
2022/09/10 14:25:00;;;;;;;1.80;1.70;;;;;;;21.12;61.37;101160.09;6358191;27;20225;-79
2022/09/10 14:28:25;;;;;;;3.53;2.90;;;;;;;21.27;60.89;101149.91;6353875;27;21019;-79
2022/09/10 14:31:46;;;;;;;3.60;2.13;;;;;;;21.33;61.02;101154.59;6348391;27;20241;-78
2022/09/10 14:35:37;;;;;;;4.63;2.60;;;;;;;21.21;60.21;101168.00;6354953;27;20233;-78
2022/09/10 14:39:03;;;;;;;2.90;2.08;;;;;;;21.49;59.94;101166.09;6353535;27;20645;-78
2022/09/10 14:42:31;;;;;;;2.20;1.83;;;;;;;21.81;58.83;101172.00;6356265;27;20221;-78
2022/09/10 14:45:53;;;;;;;2.33;1.58;;;;;;;21.94;58.00;101170.25;6354234;27;20232;-78
2022/09/10 14:49:16;;;;;;;3.25;2.10;;;;;;;21.70;58.92;101172.56;6354758;27;20225;-78
2022/09/10 14:52:36;;;;;;;3.85;2.10;;;;;;;21.68;58.67;101170.03;6354007;27;20237;-79
2022/09/10 14:55:58;;;;;;;1.70;1.60;;;;;;;21.58;58.95;101166.81;6341383;27;20452;-79
2022/09/10 14:59:29;;;;;;;2.25;1.50;;;;;;;21.84;58.31;101158.75;6353871;27;20244;-79
2022/09/10 15:02:51;;;;;;;1.67;1.35;;;;;;;22.52;56.85;101168.78;6351676;27;20244;-78
2022/09/10 15:06:12;;;;;;;2.22;1.33;;;;;;;23.03;54.67;101164.47;6346337;27;20399;-78
2022/09/10 15:09:33;;;;;;;2.42;2.22;;;;;;;23.84;53.96;101165.09;6345290;27;20237;-80
2022/09/10 15:12:55;;;;;;;1.48;1.38;;;;;;;23.97;53.50;101164.22;6350793;27;20606;-79
2022/09/10 15:16:18;;;;;;;1.67;1.58;;;;;;;24.14;54.41;101168.22;6349583;27;20859;-79
2022/09/10 15:19:39;;;;;;;3.13;1.60;;;;;;;24.72;52.97;101169.00;6339271;27;20241;-80
2022/09/10 15:23:00;;;;;;;4.75;1.73;;;;;;;25.03;52.20;101175.38;6348764;27;20233;-79
2022/09/10 15:26:21;;;;;;;2.05;1.20;;;;;;;24.93;52.13;101177.81;6343427;27;20233;-79
2022/09/10 15:29:42;;;;;;;1.33;1.20;;;;;;;24.91;52.54;101176.34;6346608;27;20642;-79
2022/09/10 15:33:05;;;;;;;0.88;0.88;;;;;;;24.85;52.44;101172.56;6350909;27;21948;-79
2022/09/10 15:36:27;;;;;;;3.70;1.38;;;;;;;24.45;53.06;101168.28;6355813;27;20257;-79
2022/09/10 15:39:50;;;;;;;1.10;0.73;;;;;;;24.39;52.28;101171.91;6338969;27;20219;-78
2022/09/10 15:43:11;;;;;;;0.90;0.90;;;;;;;24.00;52.44;101174.81;6331400;27;20618;-77
2022/09/10 15:46:33;;;;;;;1.40;1.30;;;;;;;24.14;52.44;101176.47;6352827;27;20263;-79
2022/09/10 15:49:55;;;;;;;1.52;1.20;;;;;;;24.50;52.62;101182.28;6348697;27;20246;-78
2022/09/10 15:53:16;;;;;;;1.17;1.08;;;;;;;24.35;52.81;101185.31;6355869;27;21054;-77
2022/09/10 15:56:38;;;;;;;3.13;1.15;;;;;;;24.00;53.82;101174.81;6356926;27;20221;-78
2022/09/10 16:00:00;;;;;;;0.90;0.90;;;;;;;24.08;54.30;101180.09;6341114;27;20577;-78